Stations météo

réclame
Mon MeteoGroup
Buzenol, Belgique (6484): Température de l'air & dewpoint: 14.01.2019 12:00:00 - 20.01.2019 12:00:00 (CET)Buzenol, Belgique (6484): Vitesse du vent & gusts: 14.01.2019 12:00:00 - 20.01.2019 12:00:00 (CET)Buzenol, Belgique (6484): Direction du vent: 14.01.2019 12:00:00 - 20.01.2019 12:00:00 (CET)Buzenol, Belgique (6484): reduced air pressure: 14.01.2019 12:00:00 - 20.01.2019 12:00:00 (CET)Buzenol, Belgique (6484): Ensoleillement: 14.01.2019 12:00:00 - 20.01.2019 12:00:00 (CET)Buzenol, Belgique (6484): Quantités de précipitations: 14.01.2019 12:00:00 - 20.01.2019 12:00:00 (CET)
Date & Time tt [°C] td [°C] ff [km/h] ff [knt] fx [km/h] fx [knt] dd ppp [hPa] sd [min] rr [mm]
20.01.2019 12:00:00 -0,4 -5,4 11 6 20 11 SE 1016,3 60 0,0
20.01.2019 11:00:00 -2,3 -5,7 11 6 18 10 ESE 1016,3 58 0,0
20.01.2019 10:00:00 -4,6 -6,3 6 3 15 8 E 1016,2 4 0,0
20.01.2019 09:00:00 -4,9 -6,4 8 4 14 7 E 1015,7 0 0,0
20.01.2019 08:00:00 -4,6 -6,4 7 4 16 8 E 1014,8 0 0,0
20.01.2019 07:00:00 -4,1 -6,1 7 4 14 8 ESE 1014,3 0 0,0
20.01.2019 06:00:00 -3,5 -6,0 7 4 15 8 ESE 1014,1 0 0,0
20.01.2019 05:00:00 -3,1 -5,9 8 4 18 10 SE 1014,2 0 0,0
20.01.2019 04:00:00 -2,5 -5,8 7 4 14 8 ESE 1014,1 0 0,0
20.01.2019 03:00:00 -2,5 -5,9 10 5 19 11 ESE 1014,1 0 0,0
20.01.2019 02:00:00 -2,6 -5,8 11 6 21 11 SE 1014,0 0 0,0
20.01.2019 01:00:00 -2,5 -5,6 7 4 15 8 SE 1014,1 0 0,0
20.01.2019 00:00:00 -2,3 -5,3 8 4 15 8 SE 1014,2 0 0,0
19.01.2019 23:00:00 -2,4 -5,3 9 5 21 11 SE 1014,2 0 0,0
19.01.2019 22:00:00 -2,1 -5,3 10 5 17 9 SSE 1014,1 0 0,0
19.01.2019 21:00:00 -2,3 -4,9 5 3 8 5 SE 1014,1 0 0,0
19.01.2019 20:00:00 -2,0 -4,8 6 3 11 6 SE 1013,9 0 0,0
19.01.2019 19:00:00 -1,5 -4,5 7 4 14 8 SSE 1013,9 0 0,0
19.01.2019 18:00:00 -0,9 -4,5 9 5 13 7 SSE 1014,0 0 0,0
19.01.2019 17:00:00 0,3 -4,5 9 5 19 11 S 1013,8 48 0,0
19.01.2019 16:00:00 1,3 -4,0 10 6 19 11 S 1014,0 60 0,0
19.01.2019 15:00:00 1,4 -4,1 13 7 20 11 S 1014,3 60 0,0
19.01.2019 14:00:00 1,0 -4,8 14 8 25 14 S 1015,1 60 0,0
19.01.2019 13:00:00 1,0 -3,4 11 6 19 11 SSW 1015,8 60 0,0
19.01.2019 12:00:00 -0,2 -3,9 11 6 18 10 S 1016,8 60 0,0
19.01.2019 11:00:00 -0,9 -4,0 8 4 14 7 S 1017,2 60 0,1
19.01.2019 10:00:00 -2,5 -4,4 6 3 11 6 SSE 1017,7 60 0,0
19.01.2019 09:00:00 -4,3 -5,4 6 3 10 6 ESE 1017,7 6 0,0
19.01.2019 08:00:00 -4,0 -5,2 8 4 13 7 ESE 1017,7 0 0,0
19.01.2019 07:00:00 -4,4 -5,5 4 2 12 6 ENE 1018,0 0 0,0
19.01.2019 06:00:00 -3,5 -4,8 6 3 8 4 ESE 1018,0 0 0,0
19.01.2019 05:00:00 -2,8 -4,3 4 2 14 8 S 1018,3 0 0,0
19.01.2019 04:00:00 -3,1 -4,5 7 4 11 6 SE 1018,8 0 0,0
19.01.2019 03:00:00 -3,3 -4,6 6 3 11 6 ESE 1019,3 0 0,0
19.01.2019 02:00:00 -3,9 -4,9 4 2 12 6 NNE 1019,9 0 0,0
19.01.2019 01:00:00 -2,9 -4,6 7 4 12 7 ESE 1019,9 0 0,0
19.01.2019 00:00:00 -3,7 -4,9 8 4 12 6 ESE 1020,3 0 0,0
18.01.2019 23:00:00 -3,9 -4,7 4 2 7 4 ENE 1020,6 0 0,0
18.01.2019 22:00:00 -3,5 -4,2 6 3 8 4 NE 1020,5 0 0,0
18.01.2019 21:00:00 -3,2 -3,8 6 4 8 4 NE 1020,6 0 0,0
18.01.2019 20:00:00 -2,6 -3,4 6 3 7 4 NE 1020,8 0 0,0
18.01.2019 19:00:00 -2,2 -3,3 4 2 5 3 NNE 1020,9 0 0,0
18.01.2019 18:00:00 -0,7 -3,9 4 2 11 6 S 1020,9 0 0,0
18.01.2019 17:00:00 0,4 -3,5 8 5 14 8 SSE 1020,9 45 0,0
18.01.2019 16:00:00 1,7 -2,8 8 5 14 7 SSE 1020,8 59 0,0
18.01.2019 15:00:00 1,3 -2,3 5 3 16 9 S 1020,8 41 0,0
18.01.2019 14:00:00 1,6 -1,8 10 5 16 8 S 1021,2 59 0,0
18.01.2019 13:00:00 2,3 -0,9 7 4 9 5 SW 1021,3 60 0,0
18.01.2019 12:00:00 1,4 -0,7 4 2 9 5 S 1021,8 60 0,0
18.01.2019 11:00:00 -0,5 -1,8 4 2 6 3 SSE 1022,1 56 0,1
18.01.2019 10:00:00 -2,4 -3,0 0 0 6 4 N 1021,9 36 0,0
18.01.2019 09:00:00 -3,0 -3,5 4 2 5 3 N 1021,5 4 0,0
18.01.2019 08:00:00 -2,3 -2,8 4 2 8 5 NNW 1020,8 0 0,0
18.01.2019 07:00:00 -1,7 -2,2 7 4 10 5 N 1020,4 0 0,0
18.01.2019 06:00:00 -2,3 -2,8 4 2 7 4 W 1019,7 0 0,0
18.01.2019 05:00:00 -1,0 -1,6 4 2 16 9 NW 1019,2 0 0,0
18.01.2019 04:00:00 -0,5 -1,3 9 5 18 10 NNW 1018,6 0 0,0
18.01.2019 03:00:00 -0,3 -1,1 7 4 17 9 NNW 1018,4 0 0,0
18.01.2019 02:00:00 -0,2 -1,3 8 5 21 11 WNW 1017,9 0 0,0
18.01.2019 01:00:00 -0,4 -1,5 7 4 16 9 NW 1017,9 0 0,0
18.01.2019 00:00:00 -0,9 -1,8 5 3 14 7 NW 1017,2 0 0,0
17.01.2019 23:00:00 -0,5 -1,5 5 3 14 7 NNW 1016,8 0 0,0
17.01.2019 22:00:00 -0,1 -1,4 7 4 21 11 N 1016,0 0 0,0
17.01.2019 21:00:00 -0,1 -1,5 10 5 20 11 NW 1015,1 0 0,0
17.01.2019 20:00:00 0,0 -1,4 9 5 22 12 NW 1013,9 0 0,0
17.01.2019 19:00:00 0,6 -1,0 11 6 21 12 NNW 1013,0 0 0,0
17.01.2019 18:00:00 0,9 -0,3 10 5 22 12 NNW 1011,9 0 0,3
17.01.2019 17:00:00 1,1 0,1 7 4 44 24 NNW 1010,9 0 1,1
17.01.2019 16:00:00 2,8 0,8 10 5 34 18 WNW 1009,1 27 0,0
17.01.2019 15:00:00 3,0 0,9 12 6 39 21 NNW 1008,1 0 0,3
17.01.2019 14:00:00 3,7 2,3 16 9 38 21 WNW 1006,8 1 1,0
17.01.2019 13:00:00 3,4 2,3 14 8 39 21 WNW 1006,8 0 1,0
17.01.2019 12:00:00 4,0 2,4 18 10 34 19 W 1006,6 0 0,0
17.01.2019 11:00:00 3,6 2,5 18 10 35 19 W 1006,9 0 0,3
17.01.2019 10:00:00 3,4 2,4 19 10 37 20 W 1006,8 0 0,0
17.01.2019 09:00:00 2,4 1,6 9 5 13 7 WSW 1006,5 0 0,0
17.01.2019 08:00:00 2,7 1,9 10 5 19 10 W 1006,5 0 0,0
17.01.2019 07:00:00 3,4 2,5 7 4 22 12 WNW 1005,9 0 0,8
17.01.2019 06:00:00 3,9 2,7 11 6 19 11 WNW 1006,0 0 1,1
17.01.2019 05:00:00 4,4 3,6 10 6 26 14 NW 1006,3 0 1,3
17.01.2019 04:00:00 4,3 3,6 14 8 33 18 W 1006,5 0 1,8
17.01.2019 03:00:00 4,1 3,3 21 11 36 19 W 1006,7 0 1,0
17.01.2019 02:00:00 3,6 2,9 20 11 37 20 W 1007,0 0 0,7
17.01.2019 01:00:00 3,3 2,4 14 8 43 23 W 1007,5 0 0,1
17.01.2019 00:00:00 3,7 1,1 20 11 37 20 W 1007,9 0 0,0
16.01.2019 23:00:00 3,9 0,1 18 10 36 19 W 1008,0 0 0,0
16.01.2019 22:00:00 3,6 0,3 13 7 31 17 W 1008,4 0 0,0
16.01.2019 21:00:00 3,2 0,4 17 9 30 16 W 1008,6 0 0,0
16.01.2019 20:00:00 2,7 0,4 17 9 31 17 W 1009,3 0 0,0
16.01.2019 19:00:00 2,7 0,2 14 8 23 13 W 1009,5 0 0,0
16.01.2019 18:00:00 2,8 0,1 11 6 21 11 WSW 1009,8 0 0,0
16.01.2019 17:00:00 3,9 0,3 16 9 28 15 WSW 1009,9 8 0,0
16.01.2019 16:00:00 4,6 0,5 18 10 25 13 WSW 1010,0 60 0,0
16.01.2019 15:00:00 4,9 0,4 17 9 26 14 WSW 1010,8 60 0,0
16.01.2019 14:00:00 4,7 0,2 13 7 26 14 WSW 1011,7 59 0,0
16.01.2019 13:00:00 4,5 -0,1 14 8 26 14 WSW 1012,8 41 0,0
16.01.2019 12:00:00 3,8 0,3 16 9 26 14 WSW 1014,1 15 0,0
16.01.2019 11:00:00 3,1 0,2 13 7 21 12 WSW 1014,9 0 0,0
16.01.2019 10:00:00 2,8 0,1 12 6 18 10 WSW 1015,8 0 0,0
16.01.2019 09:00:00 2,7 0,0 10 6 16 8 WSW 1015,8 0 0,0
16.01.2019 08:00:00 2,5 0,0 9 5 16 9 WSW 1016,4 0 0,0
16.01.2019 07:00:00 2,6 0,0 11 6 21 11 WSW 1016,7 0 0,0
16.01.2019 06:00:00 2,8 0,0 13 7 22 12 W 1017,3 0 0,0
16.01.2019 05:00:00 3,0 0,2 11 6 21 12 W 1018,1 0 0,0
16.01.2019 04:00:00 3,2 0,3 10 5 17 9 W 1018,6 0 0,0
16.01.2019 03:00:00 3,5 0,5 10 5 18 10 W 1018,9 0 0,0
16.01.2019 02:00:00 3,7 0,6 10 6 25 14 W 1019,5 0 0,0
16.01.2019 01:00:00 3,9 0,9 11 6 18 10 W 1019,9 0 0,0
16.01.2019 00:00:00 4,0 1,1 10 6 22 12 W 1020,2 0 0,0
15.01.2019 23:00:00 4,0 1,5 11 6 20 11 W 1020,9 0 0,0
15.01.2019 22:00:00 4,0 2,1 8 5 15 8 W 1021,3 0 0,0
15.01.2019 21:00:00 4,0 2,5 7 4 20 11 WNW 1021,4 0 0,0
15.01.2019 20:00:00 4,0 2,7 9 5 18 10 W 1021,5 0 0,0
15.01.2019 19:00:00 4,0 2,9 11 6 16 9 W 1021,9 0 0,0
15.01.2019 18:00:00 4,0 2,8 8 4 18 10 W 1022,1 0 0,0
15.01.2019 17:00:00 4,1 2,7 8 5 16 9 W 1022,1 0 0,0
15.01.2019 16:00:00 4,2 2,5 11 6 18 10 W 1022,2 0 0,0
15.01.2019 15:00:00 4,2 2,5 9 5 16 8 W 1022,3 0 0,0
15.01.2019 14:00:00 4,1 2,4 11 6 18 10 W 1022,7 0 0,0
15.01.2019 13:00:00 3,9 2,6 11 6 19 10 W 1023,1 0 0,0
15.01.2019 12:00:00 3,5 2,3 12 6 18 10 W 1023,5 0 0,0
15.01.2019 11:00:00 3,0 2,2 11 6 18 10 W 1024,0 0 0,0
15.01.2019 10:00:00 2,6 1,9 8 5 16 9 W 1024,0 0 0,0
15.01.2019 09:00:00 2,3 1,7 8 4 14 8 W 1023,7 0 0,0
15.01.2019 08:00:00 2,2 1,6 8 4 14 7 W 1023,5 0 0,0
15.01.2019 07:00:00 2,3 1,7 11 6 14 8 W 1023,8 0 0,0
15.01.2019 06:00:00 2,2 1,7 8 4 14 8 W 1023,8 0 0,0
15.01.2019 05:00:00 2,0 1,4 9 5 13 7 W 1024,1 0 0,0
15.01.2019 04:00:00 1,9 1,2 9 5 16 9 W 1024,4 0 0,0
15.01.2019 03:00:00 1,9 1,1 10 5 14 8 W 1024,1 0 0,0
15.01.2019 02:00:00 1,8 0,9 8 4 16 9 W 1024,3 0 0,0
15.01.2019 01:00:00 1,6 0,9 7 4 14 7 NNW 1023,9 0 0,0
15.01.2019 00:00:00 0,5 -0,1 4 2 8 4 NW 1024,1 0 0,0
14.01.2019 23:00:00 -0,6 -1,3 5 3 10 5 NW 1023,7 0 0,0
14.01.2019 22:00:00 -0,5 -1,2 4 2 7 4 WNW 1023,5 0 0,0
14.01.2019 21:00:00 0,2 -0,7 5 3 10 5 NNE 1023,1 0 0,0
14.01.2019 20:00:00 1,4 -0,4 7 4 16 8 N 1022,2 0 0,0
14.01.2019 19:00:00 2,3 0,3 11 6 19 10 NNE 1021,7 0 0,0
14.01.2019 18:00:00 2,5 1,0 10 6 19 10 ENE 1020,8 0 0,1
14.01.2019 17:00:00 3,4 0,8 11 6 36 20 NNE 1020,2 1 0,1
14.01.2019 16:00:00 5,5 1,2 16 9 27 15 NNE 1018,2 35 0,0
14.01.2019 15:00:00 5,2 2,2 14 8 32 17 N 1017,7 8 0,0
14.01.2019 14:00:00 4,9 2,7 13 7 38 20 N 1017,2 2 0,0
14.01.2019 13:00:00 5,2 2,4 16 9 29 16 N 1016,5 4 0,1
14.01.2019 12:00:00 5,3 2,0 13 7 32 17 N 1016,3 3 0,0

tt = Température de l'air
td = dewpoint
ff = Vitesse du vent
fx = gusts
dd = Direction du vent
ppp = reduced air pressure
sd = Ensoleillement
rr = Quantités de précipitations

stations d'obs. à proximité